sensor_id;sensor_type;location;lat;lon;timestamp;temperature;humidity
14119;DHT22;7138;49.246;9.100;2023-03-03T00:00:31;2.10;99.90
14119;DHT22;7138;49.246;9.100;2023-03-03T00:03:00;2.00;99.90
14119;DHT22;7138;49.246;9.100;2023-03-03T00:05:31;1.90;99.90
14119;DHT22;7138;49.246;9.100;2023-03-03T00:07:58;1.90;99.90
14119;DHT22;7138;49.246;9.100;2023-03-03T00:10:24;1.70;99.90
14119;DHT22;7138;49.246;9.100;2023-03-03T00:12:51;1.60;99.90
14119;DHT22;7138;49.246;9.100;2023-03-03T00:15:20;1.60;99.90
14119;DHT22;7138;49.246;9.100;2023-03-03T00:17:47;1.70;99.90
14119;DHT22;7138;49.246;9.100;2023-03-03T00:20:29;1.70;99.90
14119;DHT22;7138;49.246;9.100;2023-03-03T00:23:12;1.80;99.90
14119;DHT22;7138;49.246;9.100;2023-03-03T00:25:53;1.80;99.90
14119;DHT22;7138;49.246;9.100;2023-03-03T00:28:23;1.80;99.90
14119;DHT22;7138;49.246;9.100;2023-03-03T00:30:55;1.80;99.90
14119;DHT22;7138;49.246;9.100;2023-03-03T00:33:27;1.80;99.90
14119;DHT22;7138;49.246;9.100;2023-03-03T00:36:09;1.90;99.90
14119;DHT22;7138;49.246;9.100;2023-03-03T00:38:53;1.90;99.90
14119;DHT22;7138;49.246;9.100;2023-03-03T00:41:23;1.70;99.90
14119;DHT22;7138;49.246;9.100;2023-03-03T00:43:50;1.70;99.90
14119;DHT22;7138;49.246;9.100;2023-03-03T00:46:20;1.50;99.90
14119;DHT22;7138;49.246;9.100;2023-03-03T00:48:48;1.50;99.90
14119;DHT22;7138;49.246;9.100;2023-03-03T00:51:32;1.50;99.90
14119;DHT22;7138;49.246;9.100;2023-03-03T00:54:01;1.50;99.90
14119;DHT22;7138;49.246;9.100;2023-03-03T00:56:27;1.50;99.90
14119;DHT22;7138;49.246;9.100;2023-03-03T00:58:53;1.40;99.90
14119;DHT22;7138;49.246;9.100;2023-03-03T01:01:20;1.30;99.90
14119;DHT22;7138;49.246;9.100;2023-03-03T01:03:47;1.20;99.90
14119;DHT22;7138;49.246;9.100;2023-03-03T01:06:13;1.10;99.90
14119;DHT22;7138;49.246;9.100;2023-03-03T01:08:39;1.10;99.90
14119;DHT22;7138;49.246;9.100;2023-03-03T01:11:09;1.10;99.90
14119;DHT22;7138;49.246;9.100;2023-03-03T01:13:42;1.10;99.90
14119;DHT22;7138;49.246;9.100;2023-03-03T01:16:10;1.00;99.90
14119;DHT22;7138;49.246;9.100;2023-03-03T01:18:37;0.90;99.90
14119;DHT22;7138;49.246;9.100;2023-03-03T01:21:06;0.80;99.90
14119;DHT22;7138;49.246;9.100;2023-03-03T01:23:32;0.90;99.90
14119;DHT22;7138;49.246;9.100;2023-03-03T01:25:57;0.90;99.90
14119;DHT22;7138;49.246;9.100;2023-03-03T01:28:23;0.80;99.90
14119;DHT22;7138;49.246;9.100;2023-03-03T01:30:49;0.70;99.90
14119;DHT22;7138;49.246;9.100;2023-03-03T01:33:15;0.60;99.90
14119;DHT22;7138;49.246;9.100;2023-03-03T01:35:44;0.70;99.90
14119;DHT22;7138;49.246;9.100;2023-03-03T01:38:11;0.90;99.90
14119;DHT22;7138;49.246;9.100;2023-03-03T01:40:37;0.90;99.90
14119;DHT22;7138;49.246;9.100;2023-03-03T01:43:03;0.80;99.90
14119;DHT22;7138;49.246;9.100;2023-03-03T01:45:30;0.80;99.90
14119;DHT22;7138;49.246;9.100;2023-03-03T01:48:29;0.80;99.90
14119;DHT22;7138;49.246;9.100;2023-03-03T01:51:01;0.60;99.90
14119;DHT22;7138;49.246;9.100;2023-03-03T01:53:33;0.50;99.90
14119;DHT22;7138;49.246;9.100;2023-03-03T01:56:08;0.60;99.90
14119;DHT22;7138;49.246;9.100;2023-03-03T01:58:35;0.60;99.90
14119;DHT22;7138;49.246;9.100;2023-03-03T02:01:08;0.60;99.90
14119;DHT22;7138;49.246;9.100;2023-03-03T02:03:39;0.50;99.90
14119;DHT22;7138;49.246;9.100;2023-03-03T02:06:10;0.40;99.90
14119;DHT22;7138;49.246;9.100;2023-03-03T02:08:46;0.30;99.90
14119;DHT22;7138;49.246;9.100;2023-03-03T02:11:18;0.30;99.90
14119;DHT22;7138;49.246;9.100;2023-03-03T02:13:46;0.30;99.90
14119;DHT22;7138;49.246;9.100;2023-03-03T02:18:47;0.30;99.90
14119;DHT22;7138;49.246;9.100;2023-03-03T02:21:17;0.40;99.90
14119;DHT22;7138;49.246;9.100;2023-03-03T02:23:51;0.40;99.90
14119;DHT22;7138;49.246;9.100;2023-03-03T02:26:26;0.30;99.90
14119;DHT22;7138;49.246;9.100;2023-03-03T02:28:53;0.30;99.90
14119;DHT22;7138;49.246;9.100;2023-03-03T02:31:21;0.30;99.90
14119;DHT22;7138;49.246;9.100;2023-03-03T02:33:50;0.20;99.90
14119;DHT22;7138;49.246;9.100;2023-03-03T02:36:19;0.10;99.90
14119;DHT22;7138;49.246;9.100;2023-03-03T02:38:50;0.00;99.90
14119;DHT22;7138;49.246;9.100;2023-03-03T02:41:29;0.10;99.90
14119;DHT22;7138;49.246;9.100;2023-03-03T02:44:02;0.00;99.90
14119;DHT22;7138;49.246;9.100;2023-03-03T02:46:33;0.00;99.90
14119;DHT22;7138;49.246;9.100;2023-03-03T02:49:00;0.00;99.90
14119;DHT22;7138;49.246;9.100;2023-03-03T02:51:26;0.00;99.90
14119;DHT22;7138;49.246;9.100;2023-03-03T02:53:52;0.10;99.90
14119;DHT22;7138;49.246;9.100;2023-03-03T02:56:18;0.20;99.90
14119;DHT22;7138;49.246;9.100;2023-03-03T02:58:45;0.10;99.90
14119;DHT22;7138;49.246;9.100;2023-03-03T03:01:11;0.00;99.90
14119;DHT22;7138;49.246;9.100;2023-03-03T03:03:37;-0.10;99.90
14119;DHT22;7138;49.246;9.100;2023-03-03T03:06:03;0.00;99.90
14119;DHT22;7138;49.246;9.100;2023-03-03T03:08:29;-0.10;99.90
14119;DHT22;7138;49.246;9.100;2023-03-03T03:10:56;-0.20;99.90
14119;DHT22;7138;49.246;9.100;2023-03-03T03:13:22;-0.30;99.90
14119;DHT22;7138;49.246;9.100;2023-03-03T03:15:50;-0.40;99.90
14119;DHT22;7138;49.246;9.100;2023-03-03T03:18:16;-0.50;99.90
14119;DHT22;7138;49.246;9.100;2023-03-03T03:20:43;-0.50;99.90
14119;DHT22;7138;49.246;9.100;2023-03-03T03:23:11;-0.60;99.90
14119;DHT22;7138;49.246;9.100;2023-03-03T03:25:37;-0.50;99.90
14119;DHT22;7138;49.246;9.100;2023-03-03T03:28:09;-0.60;99.90
14119;DHT22;7138;49.246;9.100;2023-03-03T03:30:35;-0.50;99.90
14119;DHT22;7138;49.246;9.100;2023-03-03T03:33:03;-0.40;99.90
14119;DHT22;7138;49.246;9.100;2023-03-03T03:35:29;-0.40;99.90
14119;DHT22;7138;49.246;9.100;2023-03-03T03:37:55;-0.40;99.90
14119;DHT22;7138;49.246;9.100;2023-03-03T03:40:20;-0.50;99.90
14119;DHT22;7138;49.246;9.100;2023-03-03T03:42:46;-0.40;99.90
14119;DHT22;7138;49.246;9.100;2023-03-03T03:45:12;-0.50;99.90
14119;DHT22;7138;49.246;9.100;2023-03-03T03:47:39;-0.50;99.90
14119;DHT22;7138;49.246;9.100;2023-03-03T03:50:08;-0.50;99.90
14119;DHT22;7138;49.246;9.100;2023-03-03T03:52:35;-0.50;99.90
14119;DHT22;7138;49.246;9.100;2023-03-03T03:55:01;-0.60;99.90
14119;DHT22;7138;49.246;9.100;2023-03-03T03:57:26;-0.70;99.90
14119;DHT22;7138;49.246;9.100;2023-03-03T03:59:52;-0.70;99.90
14119;DHT22;7138;49.246;9.100;2023-03-03T04:02:18;-0.80;99.90
14119;DHT22;7138;49.246;9.100;2023-03-03T04:04:44;-0.70;99.90
14119;DHT22;7138;49.246;9.100;2023-03-03T04:07:11;-0.60;99.90
14119;DHT22;7138;49.246;9.100;2023-03-03T04:09:37;-0.60;99.90
14119;DHT22;7138;49.246;9.100;2023-03-03T04:12:03;-0.70;99.90
14119;DHT22;7138;49.246;9.100;2023-03-03T04:14:29;-0.80;99.90
14119;DHT22;7138;49.246;9.100;2023-03-03T04:16:55;-0.70;99.90
14119;DHT22;7138;49.246;9.100;2023-03-03T04:19:22;-0.80;99.90
14119;DHT22;7138;49.246;9.100;2023-03-03T04:21:48;-0.70;99.90
14119;DHT22;7138;49.246;9.100;2023-03-03T04:24:15;-0.70;99.90
14119;DHT22;7138;49.246;9.100;2023-03-03T04:26:44;-0.70;99.90
14119;DHT22;7138;49.246;9.100;2023-03-03T04:29:10;-0.70;99.90
14119;DHT22;7138;49.246;9.100;2023-03-03T04:31:36;-0.70;99.90
14119;DHT22;7138;49.246;9.100;2023-03-03T04:34:02;-0.70;99.90
14119;DHT22;7138;49.246;9.100;2023-03-03T04:36:28;-0.70;99.90
14119;DHT22;7138;49.246;9.100;2023-03-03T04:38:54;-0.80;99.90
14119;DHT22;7138;49.246;9.100;2023-03-03T04:41:21;-0.80;99.90
14119;DHT22;7138;49.246;9.100;2023-03-03T04:43:47;-0.80;99.90
14119;DHT22;7138;49.246;9.100;2023-03-03T04:46:12;-0.60;99.90
14119;DHT22;7138;49.246;9.100;2023-03-03T04:48:38;-0.70;99.90
14119;DHT22;7138;49.246;9.100;2023-03-03T04:51:05;-0.70;99.90
14119;DHT22;7138;49.246;9.100;2023-03-03T04:53:30;-0.70;99.90
14119;DHT22;7138;49.246;9.100;2023-03-03T04:55:56;-0.70;99.90
14119;DHT22;7138;49.246;9.100;2023-03-03T04:58:23;-0.80;99.90
14119;DHT22;7138;49.246;9.100;2023-03-03T05:00:53;-0.80;99.90
14119;DHT22;7138;49.246;9.100;2023-03-03T05:03:21;-0.80;99.90
14119;DHT22;7138;49.246;9.100;2023-03-03T05:05:47;-0.90;99.90
14119;DHT22;7138;49.246;9.100;2023-03-03T05:08:13;-0.90;99.90
14119;DHT22;7138;49.246;9.100;2023-03-03T05:10:39;-1.00;99.90
14119;DHT22;7138;49.246;9.100;2023-03-03T05:13:05;-1.10;99.90
14119;DHT22;7138;49.246;9.100;2023-03-03T05:15:33;-1.10;99.90
14119;DHT22;7138;49.246;9.100;2023-03-03T05:17:59;-1.10;99.90
14119;DHT22;7138;49.246;9.100;2023-03-03T05:20:25;-1.10;99.90
14119;DHT22;7138;49.246;9.100;2023-03-03T05:22:51;-1.10;99.90
14119;DHT22;7138;49.246;9.100;2023-03-03T05:25:17;-1.10;99.90
14119;DHT22;7138;49.246;9.100;2023-03-03T05:27:44;-1.10;99.90
14119;DHT22;7138;49.246;9.100;2023-03-03T05:30:11;-1.20;99.90
14119;DHT22;7138;49.246;9.100;2023-03-03T05:32:38;-1.20;99.90
14119;DHT22;7138;49.246;9.100;2023-03-03T05:35:05;-1.10;99.90
14119;DHT22;7138;49.246;9.100;2023-03-03T05:37:31;-1.20;99.90
14119;DHT22;7138;49.246;9.100;2023-03-03T05:39:57;-1.20;99.90
14119;DHT22;7138;49.246;9.100;2023-03-03T05:42:23;-1.30;99.90
14119;DHT22;7138;49.246;9.100;2023-03-03T05:44:49;-1.20;99.90
14119;DHT22;7138;49.246;9.100;2023-03-03T05:47:14;-1.20;99.90
14119;DHT22;7138;49.246;9.100;2023-03-03T05:49:42;-1.20;99.90
14119;DHT22;7138;49.246;9.100;2023-03-03T05:52:08;-1.30;99.90
14119;DHT22;7138;49.246;9.100;2023-03-03T05:54:33;-1.30;99.90
14119;DHT22;7138;49.246;9.100;2023-03-03T05:56:59;-1.40;99.90
14119;DHT22;7138;49.246;9.100;2023-03-03T05:59:25;-1.30;99.90
14119;DHT22;7138;49.246;9.100;2023-03-03T06:01:51;-1.30;99.90
14119;DHT22;7138;49.246;9.100;2023-03-03T06:04:17;-1.30;99.90
14119;DHT22;7138;49.246;9.100;2023-03-03T06:06:44;-1.30;99.90
14119;DHT22;7138;49.246;9.100;2023-03-03T06:09:10;-1.40;99.90
14119;DHT22;7138;49.246;9.100;2023-03-03T06:11:36;-1.40;99.90
14119;DHT22;7138;49.246;9.100;2023-03-03T06:14:02;-1.50;99.90
14119;DHT22;7138;49.246;9.100;2023-03-03T06:16:27;-1.50;99.90
14119;DHT22;7138;49.246;9.100;2023-03-03T06:18:53;-1.40;99.90
14119;DHT22;7138;49.246;9.100;2023-03-03T06:21:19;-1.20;99.90
14119;DHT22;7138;49.246;9.100;2023-03-03T06:23:46;-1.10;99.90
14119;DHT22;7138;49.246;9.100;2023-03-03T06:26:12;-1.00;99.90
14119;DHT22;7138;49.246;9.100;2023-03-03T06:28:38;-1.00;99.90
14119;DHT22;7138;49.246;9.100;2023-03-03T06:31:04;-1.10;99.90
14119;DHT22;7138;49.246;9.100;2023-03-03T06:33:30;-1.10;99.90
14119;DHT22;7138;49.246;9.100;2023-03-03T06:35:55;-1.10;99.90
14119;DHT22;7138;49.246;9.100;2023-03-03T06:38:21;-1.00;99.90
14119;DHT22;7138;49.246;9.100;2023-03-03T06:40:48;-0.90;99.90
14119;DHT22;7138;49.246;9.100;2023-03-03T06:43:14;-0.90;99.90
14119;DHT22;7138;49.246;9.100;2023-03-03T06:45:40;-0.80;99.90
14119;DHT22;7138;49.246;9.100;2023-03-03T06:48:07;-0.60;99.90
14119;DHT22;7138;49.246;9.100;2023-03-03T06:50:33;-0.50;99.90
14119;DHT22;7138;49.246;9.100;2023-03-03T06:53:05;-0.40;99.90
14119;DHT22;7138;49.246;9.100;2023-03-03T06:55:36;-0.30;99.90
14119;DHT22;7138;49.246;9.100;2023-03-03T06:58:09;-0.20;99.90
14119;DHT22;7138;49.246;9.100;2023-03-03T07:00:39;0.00;99.90
14119;DHT22;7138;49.246;9.100;2023-03-03T07:03:10;0.10;99.90
14119;DHT22;7138;49.246;9.100;2023-03-03T07:05:38;0.30;99.90
14119;DHT22;7138;49.246;9.100;2023-03-03T07:08:08;0.40;99.90
14119;DHT22;7138;49.246;9.100;2023-03-03T07:10:38;0.50;99.90
14119;DHT22;7138;49.246;9.100;2023-03-03T07:13:17;0.60;99.90
14119;DHT22;7138;49.246;9.100;2023-03-03T07:15:46;0.70;99.90
14119;DHT22;7138;49.246;9.100;2023-03-03T07:18:24;0.90;99.90
14119;DHT22;7138;49.246;9.100;2023-03-03T07:21:12;1.10;99.90
14119;DHT22;7138;49.246;9.100;2023-03-03T07:23:41;1.30;99.90
14119;DHT22;7138;49.246;9.100;2023-03-03T07:26:11;1.50;99.90
14119;DHT22;7138;49.246;9.100;2023-03-03T07:28:42;1.70;99.90
14119;DHT22;7138;49.246;9.100;2023-03-03T07:31:32;1.80;99.90
14119;DHT22;7138;49.246;9.100;2023-03-03T07:34:01;2.00;99.90
14119;DHT22;7138;49.246;9.100;2023-03-03T07:36:40;2.00;99.90
14119;DHT22;7138;49.246;9.100;2023-03-03T07:39:18;2.30;99.90
14119;DHT22;7138;49.246;9.100;2023-03-03T07:41:51;2.40;99.90
14119;DHT22;7138;49.246;9.100;2023-03-03T07:44:25;2.50;99.90
14119;DHT22;7138;49.246;9.100;2023-03-03T07:47:17;2.60;99.90
14119;DHT22;7138;49.246;9.100;2023-03-03T07:49:47;2.80;99.90
14119;DHT22;7138;49.246;9.100;2023-03-03T07:52:24;3.00;99.90
14119;DHT22;7138;49.246;9.100;2023-03-03T07:54:54;3.20;99.90
14119;DHT22;7138;49.246;9.100;2023-03-03T07:57:24;3.40;99.90
14119;DHT22;7138;49.246;9.100;2023-03-03T07:59:54;3.50;99.90
14119;DHT22;7138;49.246;9.100;2023-03-03T08:02:38;3.60;99.90
14119;DHT22;7138;49.246;9.100;2023-03-03T08:05:24;3.50;99.90
14119;DHT22;7138;49.246;9.100;2023-03-03T08:07:55;3.80;99.90
14119;DHT22;7138;49.246;9.100;2023-03-03T08:10:35;3.70;99.90
14119;DHT22;7138;49.246;9.100;2023-03-03T08:13:15;3.90;99.90
14119;DHT22;7138;49.246;9.100;2023-03-03T08:15:46;4.10;99.90
14119;DHT22;7138;49.246;9.100;2023-03-03T08:18:23;4.30;99.90
14119;DHT22;7138;49.246;9.100;2023-03-03T08:20:54;4.20;99.90
14119;DHT22;7138;49.246;9.100;2023-03-03T08:23:22;4.30;99.90
14119;DHT22;7138;49.246;9.100;2023-03-03T08:25:49;4.60;99.90
14119;DHT22;7138;49.246;9.100;2023-03-03T08:28:16;4.60;99.90
14119;DHT22;7138;49.246;9.100;2023-03-03T08:30:43;4.80;99.90
14119;DHT22;7138;49.246;9.100;2023-03-03T08:33:11;5.00;99.90
14119;DHT22;7138;49.246;9.100;2023-03-03T08:35:39;4.90;99.90
14119;DHT22;7138;49.246;9.100;2023-03-03T08:38:05;5.10;99.90
14119;DHT22;7138;49.246;9.100;2023-03-03T08:40:33;5.20;99.90
14119;DHT22;7138;49.246;9.100;2023-03-03T08:42:59;5.30;99.90
14119;DHT22;7138;49.246;9.100;2023-03-03T08:45:26;5.40;99.90
14119;DHT22;7138;49.246;9.100;2023-03-03T08:47:54;5.50;99.90
14119;DHT22;7138;49.246;9.100;2023-03-03T08:50:21;5.70;99.90
14119;DHT22;7138;49.246;9.100;2023-03-03T08:52:47;5.80;99.90
14119;DHT22;7138;49.246;9.100;2023-03-03T08:55:13;5.90;99.90
14119;DHT22;7138;49.246;9.100;2023-03-03T08:57:39;5.30;99.90
14119;DHT22;7138;49.246;9.100;2023-03-03T09:00:07;5.60;99.90
14119;DHT22;7138;49.246;9.100;2023-03-03T09:02:35;5.70;99.90
14119;DHT22;7138;49.246;9.100;2023-03-03T09:05:03;6.10;99.90
14119;DHT22;7138;49.246;9.100;2023-03-03T09:07:29;6.20;99.90
14119;DHT22;7138;49.246;9.100;2023-03-03T09:09:55;6.20;99.90
14119;DHT22;7138;49.246;9.100;2023-03-03T09:12:26;6.60;99.90
14119;DHT22;7138;49.246;9.100;2023-03-03T09:14:55;6.50;99.90
14119;DHT22;7138;49.246;9.100;2023-03-03T09:17:26;6.60;99.90
14119;DHT22;7138;49.246;9.100;2023-03-03T09:19:59;6.90;99.90
14119;DHT22;7138;49.246;9.100;2023-03-03T09:22:46;7.00;99.90
14119;DHT22;7138;49.246;9.100;2023-03-03T09:25:21;6.60;99.90
14119;DHT22;7138;49.246;9.100;2023-03-03T09:27:52;6.60;99.90
14119;DHT22;7138;49.246;9.100;2023-03-03T09:30:37;6.70;99.90
14119;DHT22;7138;49.246;9.100;2023-03-03T09:33:21;6.70;99.90
14119;DHT22;7138;49.246;9.100;2023-03-03T09:35:51;7.00;99.90
14119;DHT22;7138;49.246;9.100;2023-03-03T09:38:26;7.00;99.90
14119;DHT22;7138;49.246;9.100;2023-03-03T09:41:09;6.80;99.90
14119;DHT22;7138;49.246;9.100;2023-03-03T09:44:04;7.10;99.90
14119;DHT22;7138;49.246;9.100;2023-03-03T09:46:59;6.80;99.90
14119;DHT22;7138;49.246;9.100;2023-03-03T09:49:44;6.80;99.90
14119;DHT22;7138;49.246;9.100;2023-03-03T09:52:32;6.90;99.90
14119;DHT22;7138;49.246;9.100;2023-03-03T09:55:17;7.30;99.90
14119;DHT22;7138;49.246;9.100;2023-03-03T09:58:05;7.40;99.90
14119;DHT22;7138;49.246;9.100;2023-03-03T10:00:52;7.30;99.90
14119;DHT22;7138;49.246;9.100;2023-03-03T10:06:45;8.10;99.90
14119;DHT22;7138;49.246;9.100;2023-03-03T10:09:37;8.30;99.90
14119;DHT22;7138;49.246;9.100;2023-03-03T10:12:18;8.10;99.90
14119;DHT22;7138;49.246;9.100;2023-03-03T10:15:01;8.10;99.90
14119;DHT22;7138;49.246;9.100;2023-03-03T10:17:48;8.50;99.90
14119;DHT22;7138;49.246;9.100;2023-03-03T10:20:25;8.80;99.90
14119;DHT22;7138;49.246;9.100;2023-03-03T10:23:07;8.30;99.90
14119;DHT22;7138;49.246;9.100;2023-03-03T10:25:52;8.40;99.90
14119;DHT22;7138;49.246;9.100;2023-03-03T10:28:49;9.00;99.90
14119;DHT22;7138;49.246;9.100;2023-03-03T10:31:35;8.70;99.90
14119;DHT22;7138;49.246;9.100;2023-03-03T10:34:28;8.60;99.90
14119;DHT22;7138;49.246;9.100;2023-03-03T10:37:16;8.40;99.90
14119;DHT22;7138;49.246;9.100;2023-03-03T10:40:02;9.00;99.90
14119;DHT22;7138;49.246;9.100;2023-03-03T10:42:54;9.40;99.90
14119;DHT22;7138;49.246;9.100;2023-03-03T10:46:04;9.20;99.90
14119;DHT22;7138;49.246;9.100;2023-03-03T10:48:50;9.20;99.90
14119;DHT22;7138;49.246;9.100;2023-03-03T10:51:32;9.30;99.90
14119;DHT22;7138;49.246;9.100;2023-03-03T10:54:19;9.30;99.90
14119;DHT22;7138;49.246;9.100;2023-03-03T10:57:03;9.30;99.90
14119;DHT22;7138;49.246;9.100;2023-03-03T10:59:46;9.30;99.90
14119;DHT22;7138;49.246;9.100;2023-03-03T11:02:31;9.60;99.90
14119;DHT22;7138;49.246;9.100;2023-03-03T11:05:22;9.20;99.90
14119;DHT22;7138;49.246;9.100;2023-03-03T11:07:57;9.40;99.90
14119;DHT22;7138;49.246;9.100;2023-03-03T11:10:47;9.70;99.90
14119;DHT22;7138;49.246;9.100;2023-03-03T11:13:23;9.30;99.90
14119;DHT22;7138;49.246;9.100;2023-03-03T11:16:14;9.70;99.90
14119;DHT22;7138;49.246;9.100;2023-03-03T11:18:58;9.80;99.90
14119;DHT22;7138;49.246;9.100;2023-03-03T11:21:48;10.40;99.90
14119;DHT22;7138;49.246;9.100;2023-03-03T11:24:39;10.10;99.90
14119;DHT22;7138;49.246;9.100;2023-03-03T11:27:25;10.20;99.90
14119;DHT22;7138;49.246;9.100;2023-03-03T11:30:17;10.00;99.90
14119;DHT22;7138;49.246;9.100;2023-03-03T11:33:02;10.20;99.90
14119;DHT22;7138;49.246;9.100;2023-03-03T11:35:43;10.10;99.90
14119;DHT22;7138;49.246;9.100;2023-03-03T11:38:20;9.90;99.90
14119;DHT22;7138;49.246;9.100;2023-03-03T11:40:59;10.40;99.90
14119;DHT22;7138;49.246;9.100;2023-03-03T11:43:31;10.50;99.90
14119;DHT22;7138;49.246;9.100;2023-03-03T11:46:04;10.50;99.90
14119;DHT22;7138;49.246;9.100;2023-03-03T11:48:39;10.40;99.90
14119;DHT22;7138;49.246;9.100;2023-03-03T11:51:14;9.70;99.90
14119;DHT22;7138;49.246;9.100;2023-03-03T11:53:56;10.10;99.90
14119;DHT22;7138;49.246;9.100;2023-03-03T11:56:26;10.90;99.90
14119;DHT22;7138;49.246;9.100;2023-03-03T11:59:10;11.00;99.90
14119;DHT22;7138;49.246;9.100;2023-03-03T12:02:03;11.20;99.90
14119;DHT22;7138;49.246;9.100;2023-03-03T12:04:46;11.10;99.90
14119;DHT22;7138;49.246;9.100;2023-03-03T12:07:25;10.80;99.90
14119;DHT22;7138;49.246;9.100;2023-03-03T12:10:13;10.80;99.90
14119;DHT22;7138;49.246;9.100;2023-03-03T12:12:53;10.80;99.90
14119;DHT22;7138;49.246;9.100;2023-03-03T12:15:31;10.70;99.90
14119;DHT22;7138;49.246;9.100;2023-03-03T12:21:23;11.30;99.90
14119;DHT22;7138;49.246;9.100;2023-03-03T12:24:11;11.50;99.90
14119;DHT22;7138;49.246;9.100;2023-03-03T12:26:55;11.20;99.90
14119;DHT22;7138;49.246;9.100;2023-03-03T12:29:40;11.50;99.90
14119;DHT22;7138;49.246;9.100;2023-03-03T12:32:22;11.50;99.90
14119;DHT22;7138;49.246;9.100;2023-03-03T12:35:04;11.10;99.90
14119;DHT22;7138;49.246;9.100;2023-03-03T12:37:50;11.10;99.90
14119;DHT22;7138;49.246;9.100;2023-03-03T12:40:24;11.00;99.90
14119;DHT22;7138;49.246;9.100;2023-03-03T12:43:06;10.80;99.90
14119;DHT22;7138;49.246;9.100;2023-03-03T12:45:47;11.00;99.90
14119;DHT22;7138;49.246;9.100;2023-03-03T12:48:24;11.20;99.90
14119;DHT22;7138;49.246;9.100;2023-03-03T12:51:05;10.80;99.90
14119;DHT22;7138;49.246;9.100;2023-03-03T12:53:52;11.10;99.90
14119;DHT22;7138;49.246;9.100;2023-03-03T12:56:35;11.10;99.90
14119;DHT22;7138;49.246;9.100;2023-03-03T12:59:15;11.30;99.90
14119;DHT22;7138;49.246;9.100;2023-03-03T13:02:02;11.50;99.90
14119;DHT22;7138;49.246;9.100;2023-03-03T13:04:55;11.50;99.90
14119;DHT22;7138;49.246;9.100;2023-03-03T13:07:31;11.50;99.90
14119;DHT22;7138;49.246;9.100;2023-03-03T13:10:15;11.50;99.90
14119;DHT22;7138;49.246;9.100;2023-03-03T13:12:50;11.30;99.90
14119;DHT22;7138;49.246;9.100;2023-03-03T13:15:23;11.80;99.90
14119;DHT22;7138;49.246;9.100;2023-03-03T13:17:59;11.70;99.90
14119;DHT22;7138;49.246;9.100;2023-03-03T13:20:42;11.60;99.90
14119;DHT22;7138;49.246;9.100;2023-03-03T13:23:21;11.60;99.90
14119;DHT22;7138;49.246;9.100;2023-03-03T13:26:02;11.10;99.90
14119;DHT22;7138;49.246;9.100;2023-03-03T13:28:39;11.30;99.90
14119;DHT22;7138;49.246;9.100;2023-03-03T13:31:11;10.90;99.90
14119;DHT22;7138;49.246;9.100;2023-03-03T13:33:45;11.10;99.90
14119;DHT22;7138;49.246;9.100;2023-03-03T13:36:17;11.50;99.90
14119;DHT22;7138;49.246;9.100;2023-03-03T13:38:47;11.80;99.90
14119;DHT22;7138;49.246;9.100;2023-03-03T13:41:22;11.70;99.90
14119;DHT22;7138;49.246;9.100;2023-03-03T13:43:53;11.50;99.90
14119;DHT22;7138;49.246;9.100;2023-03-03T13:46:34;11.60;99.90
14119;DHT22;7138;49.246;9.100;2023-03-03T13:49:15;11.50;99.90
14119;DHT22;7138;49.246;9.100;2023-03-03T13:51:54;11.80;99.90
14119;DHT22;7138;49.246;9.100;2023-03-03T13:54:41;11.70;99.90
14119;DHT22;7138;49.246;9.100;2023-03-03T13:57:26;11.70;99.90
14119;DHT22;7138;49.246;9.100;2023-03-03T14:06:13;11.50;99.90
14119;DHT22;7138;49.246;9.100;2023-03-03T14:09:05;11.60;99.90
14119;DHT22;7138;49.246;9.100;2023-03-03T14:11:51;11.90;99.90
14119;DHT22;7138;49.246;9.100;2023-03-03T14:14:41;11.90;99.90
14119;DHT22;7138;49.246;9.100;2023-03-03T14:17:18;11.90;99.90
14119;DHT22;7138;49.246;9.100;2023-03-03T14:20:00;11.90;99.90
14119;DHT22;7138;49.246;9.100;2023-03-03T14:22:43;11.80;99.90
14119;DHT22;7138;49.246;9.100;2023-03-03T14:25:12;11.80;99.90
14119;DHT22;7138;49.246;9.100;2023-03-03T14:28:00;11.80;99.90
14119;DHT22;7138;49.246;9.100;2023-03-03T14:30:38;11.80;99.90
14119;DHT22;7138;49.246;9.100;2023-03-03T14:33:19;11.80;99.90
14119;DHT22;7138;49.246;9.100;2023-03-03T14:36:02;12.00;99.90
14119;DHT22;7138;49.246;9.100;2023-03-03T14:38:43;11.90;99.90
14119;DHT22;7138;49.246;9.100;2023-03-03T14:41:17;11.90;99.90
14119;DHT22;7138;49.246;9.100;2023-03-03T14:43:57;11.90;99.90
14119;DHT22;7138;49.246;9.100;2023-03-03T14:46:35;11.50;98.80
14119;DHT22;7138;49.246;9.100;2023-03-03T14:49:06;11.50;99.80
14119;DHT22;7138;49.246;9.100;2023-03-03T14:51:44;11.60;99.70
14119;DHT22;7138;49.246;9.100;2023-03-03T14:54:24;11.70;99.90
14119;DHT22;7138;49.246;9.100;2023-03-03T14:57:02;11.70;99.60
14119;DHT22;7138;49.246;9.100;2023-03-03T14:59:32;11.60;99.90
14119;DHT22;7138;49.246;9.100;2023-03-03T15:02:34;11.50;99.90
14119;DHT22;7138;49.246;9.100;2023-03-03T15:05:20;11.60;99.90
14119;DHT22;7138;49.246;9.100;2023-03-03T15:07:50;11.60;99.90
14119;DHT22;7138;49.246;9.100;2023-03-03T15:10:32;11.30;99.90
14119;DHT22;7138;49.246;9.100;2023-03-03T15:13:22;11.30;99.50
14119;DHT22;7138;49.246;9.100;2023-03-03T15:16:10;11.50;99.90
14119;DHT22;7138;49.246;9.100;2023-03-03T15:22:21;11.40;99.30
14119;DHT22;7138;49.246;9.100;2023-03-03T15:25:04;11.00;99.60
14119;DHT22;7138;49.246;9.100;2023-03-03T15:27:40;10.80;99.90
14119;DHT22;7138;49.246;9.100;2023-03-03T15:30:17;11.00;99.90
14119;DHT22;7138;49.246;9.100;2023-03-03T15:32:56;11.10;99.40
14119;DHT22;7138;49.246;9.100;2023-03-03T15:35:35;11.10;99.10
14119;DHT22;7138;49.246;9.100;2023-03-03T15:38:20;11.10;99.80
14119;DHT22;7138;49.246;9.100;2023-03-03T15:41:03;11.00;99.90
14119;DHT22;7138;49.246;9.100;2023-03-03T15:43:50;11.00;99.90
14119;DHT22;7138;49.246;9.100;2023-03-03T15:46:30;11.00;99.90
14119;DHT22;7138;49.246;9.100;2023-03-03T15:49:15;10.90;99.90
14119;DHT22;7138;49.246;9.100;2023-03-03T15:52:07;10.90;99.90
14119;DHT22;7138;49.246;9.100;2023-03-03T15:54:52;10.90;99.80
14119;DHT22;7138;49.246;9.100;2023-03-03T15:57:35;10.80;99.70
14119;DHT22;7138;49.246;9.100;2023-03-03T16:00:24;10.80;99.20
14119;DHT22;7138;49.246;9.100;2023-03-03T16:03:13;10.60;99.50
14119;DHT22;7138;49.246;9.100;2023-03-03T16:05:51;10.60;99.90
14119;DHT22;7138;49.246;9.100;2023-03-03T16:08:25;10.50;99.90
14119;DHT22;7138;49.246;9.100;2023-03-03T16:11:02;10.40;99.90
14119;DHT22;7138;49.246;9.100;2023-03-03T16:13:51;10.30;99.90
14119;DHT22;7138;49.246;9.100;2023-03-03T16:16:34;10.20;99.90
14119;DHT22;7138;49.246;9.100;2023-03-03T16:19:19;10.20;99.90
14119;DHT22;7138;49.246;9.100;2023-03-03T16:22:04;10.20;99.90
14119;DHT22;7138;49.246;9.100;2023-03-03T16:24:56;10.10;99.90
14119;DHT22;7138;49.246;9.100;2023-03-03T16:27:35;9.90;99.90
14119;DHT22;7138;49.246;9.100;2023-03-03T16:30:24;9.90;99.90
14119;DHT22;7138;49.246;9.100;2023-03-03T16:32:59;9.80;99.90
14119;DHT22;7138;49.246;9.100;2023-03-03T16:35:37;9.70;99.90
14119;DHT22;7138;49.246;9.100;2023-03-03T16:38:11;9.60;99.90
14119;DHT22;7138;49.246;9.100;2023-03-03T16:40:45;9.50;99.90
14119;DHT22;7138;49.246;9.100;2023-03-03T16:43:21;9.40;99.90
14119;DHT22;7138;49.246;9.100;2023-03-03T16:45:58;9.30;99.90
14119;DHT22;7138;49.246;9.100;2023-03-03T16:48:38;9.20;99.90
14119;DHT22;7138;49.246;9.100;2023-03-03T16:51:22;9.00;99.90
14119;DHT22;7138;49.246;9.100;2023-03-03T16:54:04;8.80;99.90
14119;DHT22;7138;49.246;9.100;2023-03-03T16:56:39;8.80;99.90